Time;durP1;ratioP1;P1;durP2;ratioP2;P2;SDS_P1;SDS_P2;PMS_P1;PMS_P2;Temp;Humidity;BMP_temperature;BMP_pressure;BME280_temperature;BME280_humidity;BME280_pressure;Samples;Min_cycle;Max_cycle;Signal;HPM_P1;HPM_P2
2021/11/09 00:22:32;;;;;;;13.75;8.25;;;;;;;;;;4842743;29;20065;-94
2021/11/09 00:24:59;;;;;;;14.30;8.40;;;;;;;;;;4857356;29;20076;-96
2021/11/09 00:27:25;;;;;;;15.82;8.95;;;;;;;;;;4857660;29;20503;-95
2021/11/09 00:29:51;;;;;;;13.57;9.02;;;;;;;;;;4890610;29;20108;-95
2021/11/09 00:32:28;;;;;;;15.13;9.30;;;;;;;;;;4862618;29;20120;-95
2021/11/09 00:34:54;;;;;;;16.08;8.15;;;;;;;;;;4860930;29;20030;-94
2021/11/09 00:37:44;;;;;;;12.70;7.88;;;;;;;;;;4860715;29;20086;-95
2021/11/09 00:40:10;;;;;;;11.48;7.57;;;;;;;;;;4860537;29;20037;-95
2021/11/09 00:42:37;;;;;;;11.23;7.63;;;;;;;;;;4859247;29;20041;-95
2021/11/09 00:45:05;;;;;;;12.20;7.03;;;;;;;;;;4859901;29;20120;-96
2021/11/09 00:47:31;;;;;;;11.63;6.75;;;;;;;;;;4858816;29;20042;-95
2021/11/09 00:49:57;;;;;;;13.10;7.88;;;;;;;;;;4858958;29;20033;-96
2021/11/09 00:52:23;;;;;;;13.40;8.00;;;;;;;;;;4860274;29;20029;-96
2021/11/09 00:54:49;;;;;;;12.85;8.18;;;;;;;;;;4859858;29;20033;-94
2021/11/09 00:57:15;;;;;;;11.40;7.85;;;;;;;;;;4860370;29;20037;-94
2021/11/09 00:59:41;;;;;;;14.82;8.18;;;;;;;;;;4870045;29;20022;-95
2021/11/09 01:02:08;;;;;;;13.07;8.50;;;;;;;;;;4860705;29;20025;-96
2021/11/09 01:04:37;;;;;;;14.00;7.65;;;;;;;;;;4861531;29;20045;-94
2021/11/09 01:07:03;;;;;;;13.18;7.93;;;;;;;;;;4863768;29;20066;-95
2021/11/09 01:09:29;;;;;;;11.68;7.30;;;;;;;;;;4865936;29;20033;-95
2021/11/09 01:11:55;;;;;;;11.82;7.30;;;;;;;;;;4865618;29;20014;-95
2021/11/09 01:14:22;;;;;;;13.88;7.85;;;;;;;;;;4866267;29;20033;-95
2021/11/09 01:16:48;;;;;;;13.52;7.78;;;;;;;;;;4864916;29;20045;-95
2021/11/09 01:19:17;;;;;;;14.15;7.85;;;;;;;;;;4864222;29;20044;-96
2021/11/09 01:21:44;;;;;;;14.43;7.70;;;;;;;;;;4855566;29;20110;-95
2021/11/09 01:24:19;;;;;;;14.15;7.45;;;;;;;;;;4844091;29;20021;-95
2021/11/09 01:26:48;;;;;;;13.90;7.20;;;;;;;;;;4844234;29;20045;-95
2021/11/09 01:29:17;;;;;;;12.63;7.32;;;;;;;;;;4844354;29;20025;-94
2021/11/09 01:31:43;;;;;;;11.82;7.38;;;;;;;;;;4844454;29;20053;-95
2021/11/09 01:34:10;;;;;;;11.85;7.47;;;;;;;;;;4844335;29;20373;-95
2021/11/09 01:36:38;;;;;;;12.68;7.45;;;;;;;;;;4844206;29;20070;-95
2021/11/09 01:39:05;;;;;;;11.63;7.07;;;;;;;;;;4844166;29;20112;-94
2021/11/09 01:41:31;;;;;;;10.75;7.07;;;;;;;;;;4844272;29;20468;-95
2021/11/09 01:43:58;;;;;;;12.23;6.85;;;;;;;;;;4844582;29;20030;-95
2021/11/09 01:46:28;;;;;;;10.07;6.15;;;;;;;;;;4843779;29;20042;-94
2021/11/09 01:48:58;;;;;;;9.07;6.18;;;;;;;;;;4843878;29;20034;-96
2021/11/09 01:51:26;;;;;;;11.57;6.95;;;;;;;;;;4844127;29;20461;-95
2021/11/09 01:53:54;;;;;;;10.93;6.68;;;;;;;;;;4844518;29;20033;-95
2021/11/09 01:56:26;;;;;;;9.93;6.18;;;;;;;;;;4844127;29;20404;-95
2021/11/09 01:58:54;;;;;;;12.48;6.13;;;;;;;;;;4843595;29;20048;-96
2021/11/09 02:01:43;;;;;;;8.98;5.85;;;;;;;;;;4843776;29;20026;-95
2021/11/09 02:04:10;;;;;;;10.80;6.07;;;;;;;;;;4845206;29;20431;-94
2021/11/09 02:06:36;;;;;;;12.68;6.53;;;;;;;;;;4843813;29;20156;-95
2021/11/09 02:09:05;;;;;;;11.68;6.40;;;;;;;;;;4843557;29;20033;-95
2021/11/09 02:11:32;;;;;;;12.07;6.15;;;;;;;;;;4843855;29;20034;-94
2021/11/09 02:14:01;;;;;;;11.93;6.97;;;;;;;;;;4843601;29;20025;-95
2021/11/09 02:16:28;;;;;;;12.88;7.68;;;;;;;;;;4842877;29;20133;-95
2021/11/09 02:18:54;;;;;;;11.88;7.55;;;;;;;;;;4843318;29;20337;-95
2021/11/09 02:21:20;;;;;;;12.65;7.45;;;;;;;;;;4843143;29;20034;-96
2021/11/09 02:23:47;;;;;;;14.40;7.93;;;;;;;;;;4865689;29;20120;-94
2021/11/09 02:26:15;;;;;;;10.77;6.80;;;;;;;;;;4858633;29;20025;-94
2021/11/09 02:28:51;;;;;;;11.88;6.82;;;;;;;;;;4858601;29;20034;-95
2021/11/09 02:31:17;;;;;;;11.70;7.50;;;;;;;;;;4885044;29;20029;-94
2021/11/09 02:33:44;;;;;;;10.63;7.22;;;;;;;;;;4877378;29;20061;-94
2021/11/09 02:36:13;;;;;;;12.10;7.53;;;;;;;;;;4852376;29;20468;-94
2021/11/09 02:38:42;;;;;;;11.60;7.13;;;;;;;;;;4858709;29;20026;-94
2021/11/09 02:41:08;;;;;;;11.40;6.88;;;;;;;;;;4862448;29;20033;-95
2021/11/09 02:43:43;;;;;;;11.38;7.35;;;;;;;;;;4862653;29;20065;-94
2021/11/09 02:49:05;;;;;;;11.63;7.95;;;;;;;;;;4863853;29;20041;-94
2021/11/09 02:54:12;;;;;;;11.32;7.20;;;;;;;;;;4863503;29;20507;-94
2021/11/09 02:56:50;;;;;;;9.90;6.75;;;;;;;;;;4862431;29;20061;-95
2021/11/09 03:02:02;;;;;;;10.70;7.15;;;;;;;;;;4864606;29;20375;-94
2021/11/09 03:10:03;;;;;;;11.63;7.38;;;;;;;;;;4880012;29;20176;-95
2021/11/09 03:12:37;;;;;;;13.20;8.05;;;;;;;;;;4882724;29;20499;-95
2021/11/09 03:15:05;;;;;;;10.93;7.22;;;;;;;;;;4882757;29;20060;-94
2021/11/09 03:20:31;;;;;;;12.07;7.88;;;;;;;;;;4881987;29;20052;-95
2021/11/09 03:45:06;;;;;;;11.55;6.88;;;;;;;;;;4864740;29;20052;-93
2021/11/09 03:47:39;;;;;;;13.73;7.80;;;;;;;;;;4863290;29;20556;-93
2021/11/09 03:50:06;;;;;;;12.48;7.47;;;;;;;;;;4848358;29;20100;-93
2021/11/09 03:52:40;;;;;;;11.65;7.47;;;;;;;;;;4862828;29;20041;-93
2021/11/09 03:55:07;;;;;;;12.65;7.00;;;;;;;;;;4863339;29;20053;-93
2021/11/09 03:57:42;;;;;;;11.52;7.10;;;;;;;;;;4863620;29;20488;-94
2021/11/09 04:00:28;;;;;;;12.38;7.40;;;;;;;;;;4880452;29;20033;-94
2021/11/09 04:03:05;;;;;;;12.57;7.20;;;;;;;;;;4877879;29;20035;-95
2021/11/09 04:05:39;;;;;;;10.18;6.72;;;;;;;;;;4866232;29;20041;-93
2021/11/09 04:08:15;;;;;;;11.55;7.07;;;;;;;;;;4862527;29;20116;-94
2021/11/09 04:10:56;;;;;;;12.07;6.70;;;;;;;;;;4861126;29;20136;-94
2021/11/09 04:13:34;;;;;;;9.90;6.50;;;;;;;;;;4859934;29;20057;-95
2021/11/09 04:16:21;;;;;;;14.48;7.50;;;;;;;;;;4860523;29;20041;-95
2021/11/09 04:18:56;;;;;;;10.68;7.03;;;;;;;;;;4861219;29;20033;-94
2021/11/09 04:32:16;;;;;;;13.18;7.95;;;;;;;;;;4843336;29;20055;-94
2021/11/09 05:11:47;;;;;;;14.15;9.00;;;;;;;;;;4862531;29;20048;-94
2021/11/09 05:14:15;;;;;;;12.95;7.93;;;;;;;;;;4859991;29;20080;-94
2021/11/09 05:16:41;;;;;;;16.85;10.23;;;;;;;;;;4859435;29;20048;-94
2021/11/09 05:19:08;;;;;;;14.35;8.50;;;;;;;;;;4859711;29;20034;-94
2021/11/09 05:21:34;;;;;;;14.95;10.80;;;;;;;;;;4860107;29;20045;-93
2021/11/09 05:24:02;;;;;;;20.40;12.32;;;;;;;;;;4860656;29;20587;-94
2021/11/09 05:26:28;;;;;;;20.50;14.20;;;;;;;;;;4859246;29;20033;-93
2021/11/09 05:28:54;;;;;;;13.73;9.45;;;;;;;;;;4859906;29;20085;-95
2021/11/09 05:31:20;;;;;;;11.48;7.45;;;;;;;;;;4861143;29;20029;-94
2021/11/09 05:33:47;;;;;;;13.38;8.35;;;;;;;;;;4867751;29;20047;-93
2021/11/09 05:36:16;;;;;;;12.40;7.45;;;;;;;;;;4859832;29;20029;-93
2021/11/09 05:41:16;;;;;;;11.65;7.30;;;;;;;;;;4873423;29;20045;-95
2021/11/09 05:43:47;;;;;;;9.82;6.82;;;;;;;;;;4865757;29;20033;-95
2021/11/09 05:46:13;;;;;;;12.13;7.10;;;;;;;;;;4878098;29;20037;-94
2021/11/09 05:48:43;;;;;;;10.73;7.07;;;;;;;;;;4864352;29;20034;-94
2021/11/09 05:51:24;;;;;;;10.02;7.07;;;;;;;;;;4860930;29;20480;-96
2021/11/09 05:53:51;;;;;;;12.10;6.47;;;;;;;;;;4875108;29;20036;-94
2021/11/09 05:56:17;;;;;;;11.55;6.72;;;;;;;;;;4874750;29;20037;-95
2021/11/09 05:58:45;;;;;;;15.00;6.95;;;;;;;;;;4859982;29;20021;-93
2021/11/09 06:01:11;;;;;;;11.20;6.90;;;;;;;;;;4859498;29;20029;-94
2021/11/09 06:03:37;;;;;;;15.02;7.57;;;;;;;;;;4859697;29;20450;-94
2021/11/09 06:06:09;;;;;;;13.18;7.68;;;;;;;;;;4858955;29;20045;-95
2021/11/09 06:08:35;;;;;;;11.30;7.38;;;;;;;;;;4867507;29;20107;-94
2021/11/09 06:11:02;;;;;;;12.63;7.22;;;;;;;;;;4863161;29;20040;-95
2021/11/09 06:13:28;;;;;;;13.00;7.70;;;;;;;;;;4863076;29;20041;-93
2021/11/09 06:25:15;;;;;;;13.15;7.18;;;;;;;;;;4847241;29;20025;-95
2021/11/09 06:28:14;;;;;;;14.00;7.45;;;;;;;;;;4855994;29;20042;-96
2021/11/09 06:30:40;;;;;;;14.00;7.70;;;;;;;;;;4842848;29;20041;-95
2021/11/09 06:33:40;;;;;;;;;;;;;;;;;;;;;
2021/11/09 06:36:12;;;;;;;11.75;6.93;;;;;;;;;;4861808;29;20039;-95
2021/11/09 06:38:40;;;;;;;12.55;7.50;;;;;;;;;;4862674;29;20040;-96
2021/11/09 06:41:09;;;;;;;14.00;7.65;;;;;;;;;;4861631;29;20108;-95
2021/11/09 06:43:47;;;;;;;11.65;7.38;;;;;;;;;;4861539;29;20065;-95
2021/11/09 06:46:16;;;;;;;12.27;8.13;;;;;;;;;;4860511;29;20065;-96
2021/11/09 06:48:47;;;;;;;14.57;8.27;;;;;;;;;;4860718;29;20055;-95
2021/11/09 06:51:24;;;;;;;10.38;7.75;;;;;;;;;;4845749;29;20026;-95
2021/11/09 06:59:52;;;;;;;11.98;7.47;;;;;;;;;;4862806;23;20087;-87
2021/11/09 07:02:19;;;;;;;13.80;7.68;;;;;;;;;;4877095;29;20085;-86
2021/11/09 07:04:45;;;;;;;15.00;8.52;;;;;;;;;;4877091;29;20376;-87
2021/11/09 07:07:11;;;;;;;12.27;7.70;;;;;;;;;;4875807;29;20407;-87
2021/11/09 07:09:37;;;;;;;13.68;8.05;;;;;;;;;;4877614;29;20570;-87
2021/11/09 07:12:06;;;;;;;13.50;8.00;;;;;;;;;;4875998;29;20029;-86
2021/11/09 07:14:33;;;;;;;14.73;8.07;;;;;;;;;;4878858;29;20100;-87
2021/11/09 07:16:59;;;;;;;15.98;8.20;;;;;;;;;;4877960;29;20048;-87
2021/11/09 07:19:35;;;;;;;13.00;8.15;;;;;;;;;;4878477;29;20037;-87
2021/11/09 07:22:01;;;;;;;12.23;7.95;;;;;;;;;;4879210;29;20161;-87
2021/11/09 07:24:30;;;;;;;12.63;8.00;;;;;;;;;;4880220;29;20044;-87
2021/11/09 07:26:57;;;;;;;12.23;7.90;;;;;;;;;;4883350;29;20643;-87
2021/11/09 07:29:23;;;;;;;13.52;8.05;;;;;;;;;;4885819;29;20459;-87
2021/11/09 07:31:52;;;;;;;13.65;8.38;;;;;;;;;;4881630;29;20128;-87
2021/11/09 07:34:18;;;;;;;10.93;7.32;;;;;;;;;;4881358;29;20029;-87
2021/11/09 07:36:45;;;;;;;12.63;8.30;;;;;;;;;;4880474;29;20037;-87
2021/11/09 07:39:14;;;;;;;12.75;8.35;;;;;;;;;;4880592;29;20037;-87
2021/11/09 07:41:41;;;;;;;12.15;8.20;;;;;;;;;;4880801;29;20486;-87
2021/11/09 07:44:08;;;;;;;14.23;8.35;;;;;;;;;;4880717;29;20033;-87
2021/11/09 07:46:37;;;;;;;17.50;8.07;;;;;;;;;;4880367;29;20490;-86
2021/11/09 07:49:03;;;;;;;13.02;8.65;;;;;;;;;;4880630;29;20124;-87
2021/11/09 07:51:41;;;;;;;13.85;9.27;;;;;;;;;;4880144;29;20029;-87
2021/11/09 07:54:11;;;;;;;14.75;8.70;;;;;;;;;;4880329;29;20077;-87
2021/11/09 07:56:39;;;;;;;17.25;9.00;;;;;;;;;;4879791;29;20036;-87
2021/11/09 08:01:49;;;;;;;13.85;8.23;;;;;;;;;;4881417;29;20101;-87
2021/11/09 08:04:31;;;;;;;12.80;8.07;;;;;;;;;;4879887;29;20033;-87
2021/11/09 08:07:10;;;;;;;15.60;7.50;;;;;;;;;;4879517;29;20043;-87
2021/11/09 08:09:39;;;;;;;12.48;8.18;;;;;;;;;;4880418;29;20452;-87
2021/11/09 08:12:14;;;;;;;13.77;8.45;;;;;;;;;;4883625;29;20032;-87
2021/11/09 08:14:43;;;;;;;14.55;7.65;;;;;;;;;;4881865;29;20035;-87
2021/11/09 08:17:09;;;;;;;12.23;8.50;;;;;;;;;;4879765;29;20065;-87
2021/11/09 08:19:36;;;;;;;12.25;7.43;;;;;;;;;;4880217;29;20033;-87
2021/11/09 08:22:06;;;;;;;12.38;8.32;;;;;;;;;;4879899;29;20032;-87
2021/11/09 08:24:51;;;;;;;;;;;;;;;;;;;;;
2021/11/09 08:34:04;;;;;;;12.98;7.85;;;;;;;;;;4898207;29;20080;-87
2021/11/09 08:37:06;;;;;;;13.00;7.97;;;;;;;;;;4842436;29;20528;-87
2021/11/09 08:40:10;;;;;;;;;;;;;;;;;;;;;
2021/11/09 08:51:50;;;;;;;;;;;;;;;;;;;;;
2021/11/09 08:54:47;;;;;;;12.05;7.68;;;;;;;;;;4899633;29;20039;-88
2021/11/09 09:12:24;;;;;;;8.13;4.28;;;;;;;;;;4860044;29;20032;-88
2021/11/09 09:18:11;;;;;;;7.88;4.05;;;;;;;;;;4765629;30;20062;-88
2021/11/09 10:22:23;;;;;;;9.20;5.80;;;;;;;;;;4898649;29;20084;-90
2021/11/09 10:25:12;;;;;;;;;;;;;;;;;;;;;
2021/11/09 10:28:01;;;;;;;9.07;5.13;;;;;;;;;;4893820;29;20044;-90
2021/11/09 10:33:53;;;;;;;;;;;;;;;;;;;;;
2021/11/09 12:46:10;;;;;;;9.45;4.68;;;;;;;;;;4886334;29;20052;-91
2021/11/09 12:48:48;;;;;;;12.02;4.30;;;;;;;;;;4865515;29;20057;-90
2021/11/09 12:51:14;;;;;;;8.02;4.05;;;;;;;;;;4865165;29;20104;-91
2021/11/09 12:53:48;;;;;;;10.05;5.85;;;;;;;;;;4865648;29;20037;-91
2021/11/09 12:56:17;;;;;;;8.18;4.20;;;;;;;;;;4864858;29;20025;-91
2021/11/09 12:58:58;;;;;;;7.28;3.47;;;;;;;;;;4865852;29;20123;-89
2021/11/09 13:06:49;;;;;;;6.35;3.47;;;;;;;;;;4881279;29;20590;-91
2021/11/09 13:11:44;;;;;;;7.68;3.25;;;;;;;;;;4882604;29;20025;-91
2021/11/09 13:14:11;;;;;;;6.20;3.33;;;;;;;;;;4866081;29;20032;-91
2021/11/09 13:16:42;;;;;;;7.60;3.33;;;;;;;;;;4865370;29;20029;-90
2021/11/09 13:19:09;;;;;;;8.05;3.95;;;;;;;;;;4864222;29;20021;-91
2021/11/09 13:21:36;;;;;;;6.00;3.40;;;;;;;;;;4864959;29;20089;-91
2021/11/09 13:24:02;;;;;;;8.48;4.10;;;;;;;;;;4864797;29;20040;-91
2021/11/09 13:26:28;;;;;;;8.70;3.75;;;;;;;;;;4881184;29;20053;-91
2021/11/09 13:28:55;;;;;;;8.30;4.00;;;;;;;;;;4864438;29;20115;-91
2021/11/09 13:31:22;;;;;;;10.05;4.32;;;;;;;;;;4881915;29;20032;-91
2021/11/09 13:33:49;;;;;;;9.45;4.63;;;;;;;;;;4865622;29;20041;-91
2021/11/09 13:36:22;;;;;;;7.55;3.80;;;;;;;;;;4868874;29;20386;-91
2021/11/09 13:38:48;;;;;;;10.23;3.97;;;;;;;;;;4882747;29;20506;-91
2021/11/09 13:41:18;;;;;;;5.82;3.17;;;;;;;;;;4883489;29;20029;-91
2021/11/09 13:43:52;;;;;;;7.82;4.13;;;;;;;;;;4884593;29;20487;-90
2021/11/09 13:46:21;;;;;;;6.13;3.17;;;;;;;;;;4913070;29;20165;-91
2021/11/09 13:48:51;;;;;;;5.93;3.00;;;;;;;;;;4901773;29;20051;-91
2021/11/09 13:51:21;;;;;;;8.15;3.90;;;;;;;;;;4901753;29;20032;-90
2021/11/09 13:53:51;;;;;;;6.30;3.13;;;;;;;;;;4901802;29;20025;-90
2021/11/09 13:56:23;;;;;;;7.53;3.33;;;;;;;;;;4904316;29;20201;-90
2021/11/09 13:59:08;;;;;;;6.60;3.50;;;;;;;;;;4903460;29;20556;-90
2021/11/09 14:01:42;;;;;;;6.10;3.38;;;;;;;;;;4903057;29;20276;-91
2021/11/09 14:17:30;;;;;;;5.22;2.28;;;;;;;;;;4918697;29;20024;-92
2021/11/09 14:19:56;;;;;;;5.90;2.40;;;;;;;;;;4897768;29;20032;-90
2021/11/09 14:22:22;;;;;;;14.38;4.80;;;;;;;;;;4900109;29;20104;-92
2021/11/09 14:25:01;;;;;;;6.90;2.65;;;;;;;;;;4901000;29;20039;-91
2021/11/09 14:27:28;;;;;;;7.78;2.80;;;;;;;;;;4903842;29;20027;-92
2021/11/09 14:29:56;;;;;;;6.30;2.85;;;;;;;;;;4898516;29;20031;-92
2021/11/09 14:32:32;;;;;;;6.50;2.45;;;;;;;;;;4900577;29;20024;-92
2021/11/09 14:35:07;;;;;;;11.55;4.03;;;;;;;;;;4900038;29;20032;-92
2021/11/09 14:37:42;;;;;;;6.57;3.05;;;;;;;;;;4900838;29;20036;-91
2021/11/09 14:40:11;;;;;;;7.20;3.35;;;;;;;;;;4901115;29;20121;-91
2021/11/09 14:48:17;;;;;;;6.95;2.70;;;;;;;;;;4913879;29;20035;-92
2021/11/09 14:50:59;;;;;;;8.48;3.63;;;;;;;;;;4900563;29;20060;-92
2021/11/09 14:53:27;;;;;;;9.00;3.40;;;;;;;;;;4896365;29;20104;-92
2021/11/09 14:56:02;;;;;;;7.70;3.10;;;;;;;;;;4899970;29;20027;-91
2021/11/09 14:58:37;;;;;;;11.45;4.25;;;;;;;;;;4913191;29;20039;-92
2021/11/09 15:01:18;;;;;;;9.30;4.15;;;;;;;;;;4916877;29;20087;-91
2021/11/09 15:04:06;;;;;;;12.00;4.75;;;;;;;;;;4915805;29;20024;-91
2021/11/09 15:06:39;;;;;;;7.38;3.72;;;;;;;;;;4903697;29;20051;-92
2021/11/09 15:30:34;;;;;;;10.05;5.25;;;;;;;;;;4916993;29;20115;-91
2021/11/09 15:33:02;;;;;;;10.68;4.90;;;;;;;;;;4899186;29;20123;-91
2021/11/09 15:38:14;;;;;;;6.97;4.03;;;;;;;;;;4898068;29;20101;-91
2021/11/09 15:40:45;;;;;;;8.50;4.25;;;;;;;;;;4896344;29;20036;-91
2021/11/09 15:43:14;;;;;;;14.70;4.75;;;;;;;;;;4900252;29;20032;-92
2021/11/09 15:45:40;;;;;;;11.50;4.78;;;;;;;;;;4885743;29;20460;-91
2021/11/09 15:48:06;;;;;;;8.80;4.15;;;;;;;;;;4889267;29;20451;-91
2021/11/09 15:50:33;;;;;;;8.77;4.55;;;;;;;;;;4896864;29;20080;-91
2021/11/09 15:52:59;;;;;;;9.50;4.53;;;;;;;;;;4904552;29;20028;-91
2021/11/09 15:55:29;;;;;;;8.20;4.47;;;;;;;;;;4896198;29;20027;-91
2021/11/09 15:57:55;;;;;;;11.52;4.70;;;;;;;;;;4902906;29;20047;-92
2021/11/09 16:00:22;;;;;;;11.38;4.88;;;;;;;;;;4902231;29;20028;-91
2021/11/09 16:02:48;;;;;;;10.18;5.38;;;;;;;;;;4902268;29;20056;-91
2021/11/09 16:05:15;;;;;;;11.07;5.45;;;;;;;;;;4903137;29;20054;-91
2021/11/09 16:07:42;;;;;;;11.32;6.18;;;;;;;;;;4902491;29;20032;-91
2021/11/09 16:10:10;;;;;;;8.85;4.30;;;;;;;;;;4893395;29;20028;-91
2021/11/09 16:12:37;;;;;;;12.32;4.88;;;;;;;;;;4883808;29;20047;-91
2021/11/09 16:15:08;;;;;;;10.30;5.78;;;;;;;;;;4884243;29;20016;-91
2021/11/09 16:17:34;;;;;;;9.13;4.65;;;;;;;;;;4887592;29;20035;-91
2021/11/09 16:20:01;;;;;;;12.93;6.70;;;;;;;;;;4902328;29;20063;-91
2021/11/09 16:22:32;;;;;;;9.27;4.82;;;;;;;;;;4902549;29;20039;-91
2021/11/09 16:24:58;;;;;;;11.40;5.93;;;;;;;;;;4902571;29;20474;-91
2021/11/09 16:27:24;;;;;;;11.18;5.57;;;;;;;;;;4903015;29;20032;-91
2021/11/09 16:29:57;;;;;;;10.73;5.22;;;;;;;;;;4901871;29;20028;-90
2021/11/09 16:32:29;;;;;;;;;;;;;;;;;;4902771;29;20053;-91
2021/11/09 16:38:10;;;;;;;10.45;6.72;;;;;;;;;;4919273;29;20035;-91
2021/11/09 16:40:39;;;;;;;10.52;5.15;;;;;;;;;;4902962;29;20048;-91
2021/11/09 16:43:11;;;;;;;9.63;4.90;;;;;;;;;;4902234;29;20080;-90
2021/11/09 16:45:44;;;;;;;13.13;4.75;;;;;;;;;;4920026;29;20044;-91
2021/11/09 16:48:11;;;;;;;8.40;4.63;;;;;;;;;;4901575;29;20032;-90
2021/11/09 16:53:45;;;;;;;12.15;5.35;;;;;;;;;;4879280;29;20436;-91
2021/11/09 17:01:42;;;;;;;9.63;4.80;;;;;;;;;;4879294;29;20051;-91
2021/11/09 18:13:17;;;;;;;9.55;5.63;;;;;;;;;;4904823;29;20040;-93
2021/11/09 18:21:12;;;;;;;10.73;6.32;;;;;;;;;;4898853;29;20051;-91
2021/11/09 18:23:39;;;;;;;11.68;5.78;;;;;;;;;;4883570;29;20036;-91
2021/11/09 18:26:05;;;;;;;9.50;5.25;;;;;;;;;;4881776;29;20024;-92
2021/11/09 18:28:31;;;;;;;10.63;5.72;;;;;;;;;;4899083;29;20153;-90
2021/11/09 18:30:58;;;;;;;12.15;6.22;;;;;;;;;;4881949;29;20033;-91
2021/11/09 18:33:24;;;;;;;11.23;6.20;;;;;;;;;;4882128;29;20048;-90
2021/11/09 18:35:52;;;;;;;13.60;6.18;;;;;;;;;;4883061;29;20032;-90
2021/11/09 18:38:18;;;;;;;10.45;6.13;;;;;;;;;;4881791;29;20055;-91
2021/11/09 18:40:45;;;;;;;11.68;5.65;;;;;;;;;;4880997;29;20401;-90
2021/11/09 18:43:15;;;;;;;9.27;5.68;;;;;;;;;;4903634;29;20036;-91
2021/11/09 18:45:42;;;;;;;11.02;6.43;;;;;;;;;;4892937;29;20518;-91
2021/11/09 18:48:08;;;;;;;11.60;6.13;;;;;;;;;;4917193;29;20061;-90
2021/11/09 18:50:38;;;;;;;9.85;5.78;;;;;;;;;;4897359;29;20043;-91
2021/11/09 18:53:04;;;;;;;9.35;5.85;;;;;;;;;;4918238;29;20387;-91
2021/11/09 18:55:31;;;;;;;11.77;5.57;;;;;;;;;;4899590;29;20118;-91
2021/11/09 18:57:57;;;;;;;12.90;6.18;;;;;;;;;;4900047;29;20070;-91
2021/11/09 19:00:24;;;;;;;11.82;5.43;;;;;;;;;;4900562;29;20024;-91
2021/11/09 19:02:50;;;;;;;12.27;5.65;;;;;;;;;;4918594;29;20032;-93
2021/11/09 19:05:22;;;;;;;11.95;5.65;;;;;;;;;;4900723;29;20036;-91
2021/11/09 19:07:51;;;;;;;11.55;6.32;;;;;;;;;;4891805;29;20036;-92
2021/11/09 19:10:18;;;;;;;11.00;6.32;;;;;;;;;;4900231;29;20027;-92
2021/11/09 19:12:45;;;;;;;12.85;6.68;;;;;;;;;;4901655;29;20031;-92
2021/11/09 19:15:44;;;;;;;11.82;6.75;;;;;;;;;;4900445;29;20028;-90
2021/11/09 19:18:17;;;;;;;11.38;6.72;;;;;;;;;;4807807;29;20043;-90
2021/11/09 19:23:51;;;;;;;11.15;5.93;;;;;;;;;;4775454;30;20521;-91
2021/11/09 19:26:17;;;;;;;9.63;5.88;;;;;;;;;;4771790;30;20561;-92
2021/11/09 19:28:51;;;;;;;10.77;6.82;;;;;;;;;;4760771;30;20044;-92
2021/11/09 19:31:20;;;;;;;13.43;7.10;;;;;;;;;;4772007;30;20032;-91
2021/11/09 19:33:46;;;;;;;9.82;6.07;;;;;;;;;;4762390;30;20042;-91
2021/11/09 19:36:13;;;;;;;13.40;6.82;;;;;;;;;;4783262;30;20031;-91
2021/11/09 19:38:40;;;;;;;12.52;8.10;;;;;;;;;;4773961;30;20096;-91
2021/11/09 19:41:06;;;;;;;13.55;6.80;;;;;;;;;;4790522;30;20055;-90
2021/11/09 19:43:32;;;;;;;11.10;6.40;;;;;;;;;;4778196;30;20462;-91
2021/11/09 19:45:59;;;;;;;11.90;6.13;;;;;;;;;;4785584;29;20051;-92
2021/11/09 19:48:27;;;;;;;11.20;5.95;;;;;;;;;;4790522;29;20036;-92
2021/11/09 19:50:58;;;;;;;12.35;6.32;;;;;;;;;;4794480;29;20090;-91
2021/11/09 19:53:26;;;;;;;11.85;6.07;;;;;;;;;;4798310;29;20053;-90
2021/11/09 19:55:53;;;;;;;11.48;6.25;;;;;;;;;;4837452;29;20542;-91
2021/11/09 19:58:24;;;;;;;11.50;6.20;;;;;;;;;;4843605;29;20041;-90
2021/11/09 20:00:51;;;;;;;9.90;6.15;;;;;;;;;;4865633;29;20067;-91
2021/11/09 20:03:22;;;;;;;9.05;5.70;;;;;;;;;;4886968;29;20036;-93
2021/11/09 20:05:49;;;;;;;11.35;6.05;;;;;;;;;;4884501;29;20072;-90
2021/11/09 20:08:16;;;;;;;13.25;6.47;;;;;;;;;;4885482;29;20033;-91
2021/11/09 20:10:44;;;;;;;13.95;7.30;;;;;;;;;;4884378;29;20447;-91
2021/11/09 20:13:11;;;;;;;14.13;7.10;;;;;;;;;;4883140;29;20036;-91
2021/11/09 20:15:43;;;;;;;10.80;6.15;;;;;;;;;;4899394;29;20028;-91
2021/11/09 20:18:10;;;;;;;12.23;6.28;;;;;;;;;;4884059;29;20032;-91
2021/11/09 20:20:37;;;;;;;12.88;6.70;;;;;;;;;;4887573;29;20035;-92
2021/11/09 20:23:05;;;;;;;12.52;6.85;;;;;;;;;;4899903;29;20033;-90
2021/11/09 20:25:31;;;;;;;12.07;7.38;;;;;;;;;;4865386;29;20102;-90
2021/11/09 20:27:58;;;;;;;13.52;7.18;;;;;;;;;;4883853;29;20056;-89
2021/11/09 20:30:29;;;;;;;11.73;6.82;;;;;;;;;;4883218;29;20320;-90
2021/11/09 20:32:56;;;;;;;12.63;7.20;;;;;;;;;;4900814;29;20029;-90
2021/11/09 20:35:22;;;;;;;13.00;7.38;;;;;;;;;;4884685;29;20084;-89
2021/11/09 20:37:53;;;;;;;12.98;7.72;;;;;;;;;;4886255;29;20047;-90
2021/11/09 20:40:20;;;;;;;15.55;8.15;;;;;;;;;;4886191;29;20029;-90
2021/11/09 20:42:47;;;;;;;14.80;8.18;;;;;;;;;;4885225;29;20081;-89
2021/11/09 20:45:15;;;;;;;15.45;7.97;;;;;;;;;;4892260;29;20049;-90
2021/11/09 20:47:44;;;;;;;14.15;8.25;;;;;;;;;;4902941;29;20059;-92
2021/11/09 20:50:12;;;;;;;12.40;8.07;;;;;;;;;;4903185;29;20038;-91
2021/11/09 20:52:41;;;;;;;13.20;8.25;;;;;;;;;;4902094;29;20020;-90
2021/11/09 20:55:11;;;;;;;11.45;7.60;;;;;;;;;;4902825;29;20024;-91
2021/11/09 20:57:37;;;;;;;13.60;7.68;;;;;;;;;;4902253;29;20028;-91
2021/11/09 21:00:06;;;;;;;12.52;7.63;;;;;;;;;;4904125;29;20039;-90
2021/11/09 21:02:32;;;;;;;13.80;7.28;;;;;;;;;;4903504;29;20028;-91
2021/11/09 21:04:58;;;;;;;14.10;7.13;;;;;;;;;;4902240;29;20032;-90
2021/11/09 21:07:24;;;;;;;13.43;7.72;;;;;;;;;;4902284;29;20486;-90
2021/11/09 21:09:51;;;;;;;13.95;7.93;;;;;;;;;;4904853;29;20034;-91
2021/11/09 21:12:26;;;;;;;15.48;8.18;;;;;;;;;;4901991;29;20080;-90
2021/11/09 21:20:22;;;;;;;15.43;8.05;;;;;;;;;;4920677;29;20471;-93
2021/11/09 21:22:48;;;;;;;13.65;7.95;;;;;;;;;;4917644;29;20080;-91
2021/11/09 21:25:14;;;;;;;14.25;8.30;;;;;;;;;;4918078;29;20047;-91
2021/11/09 21:27:40;;;;;;;15.73;8.52;;;;;;;;;;4919326;29;20052;-91
2021/11/09 21:32:59;;;;;;;12.45;8.18;;;;;;;;;;4921017;29;20028;-91
2021/11/09 21:35:25;;;;;;;13.35;8.30;;;;;;;;;;4903053;29;20401;-91
2021/11/09 21:37:51;;;;;;;16.90;8.23;;;;;;;;;;4903402;29;20580;-92
2021/11/09 21:40:20;;;;;;;12.43;7.28;;;;;;;;;;4904331;29;20485;-93
2021/11/09 21:42:50;;;;;;;13.80;7.97;;;;;;;;;;4902308;29;20042;-90
2021/11/09 21:45:22;;;;;;;12.75;7.88;;;;;;;;;;4881748;29;20499;-92
2021/11/09 21:47:57;;;;;;;11.50;6.80;;;;;;;;;;4881154;29;20102;-93
2021/11/09 21:50:27;;;;;;;11.10;6.75;;;;;;;;;;4898280;29;20555;-92
2021/11/09 21:52:54;;;;;;;12.52;6.97;;;;;;;;;;4898357;29;20025;-92
2021/11/09 21:55:21;;;;;;;12.65;7.32;;;;;;;;;;4902303;29;20040;-91
2021/11/09 21:57:49;;;;;;;13.30;7.70;;;;;;;;;;4919685;29;20119;-91
2021/11/09 22:00:22;;;;;;;11.73;7.60;;;;;;;;;;4901953;29;20083;-92
2021/11/09 22:02:48;;;;;;;13.45;7.88;;;;;;;;;;4898419;29;20032;-90
2021/11/09 22:05:14;;;;;;;12.30;7.43;;;;;;;;;;4899966;29;20758;-91
2021/11/09 22:07:41;;;;;;;10.35;6.88;;;;;;;;;;4899787;29;20035;-91
2021/11/09 22:10:08;;;;;;;12.80;7.40;;;;;;;;;;4899144;29;20120;-91
2021/11/09 22:12:34;;;;;;;12.05;7.03;;;;;;;;;;4898198;29;20024;-90
2021/11/09 22:15:00;;;;;;;13.63;7.60;;;;;;;;;;4897879;29;20021;-90
2021/11/09 22:17:26;;;;;;;13.27;7.38;;;;;;;;;;4899209;29;20036;-91
2021/11/09 22:19:54;;;;;;;13.57;7.90;;;;;;;;;;4899560;29;20032;-91
2021/11/09 22:22:20;;;;;;;12.35;7.13;;;;;;;;;;4899733;29;20036;-90
2021/11/09 22:24:46;;;;;;;11.43;7.68;;;;;;;;;;4898853;29;20032;-92
2021/11/09 22:27:13;;;;;;;15.50;7.90;;;;;;;;;;4898037;29;20028;-90
2021/11/09 22:29:39;;;;;;;14.18;8.13;;;;;;;;;;4897801;29;20031;-91
2021/11/09 22:32:06;;;;;;;12.98;8.40;;;;;;;;;;4897492;29;20141;-92
2021/11/09 22:34:32;;;;;;;12.75;8.25;;;;;;;;;;4888520;29;20025;-91
2021/11/09 22:36:59;;;;;;;13.38;8.13;;;;;;;;;;4898930;29;20024;-92
2021/11/09 22:39:25;;;;;;;12.90;8.13;;;;;;;;;;4899130;29;20104;-93
2021/11/09 22:41:51;;;;;;;14.10;8.38;;;;;;;;;;4899554;29;20084;-92
2021/11/09 22:44:17;;;;;;;13.95;8.57;;;;;;;;;;4897672;29;20025;-92
2021/11/09 22:46:43;;;;;;;15.88;9.50;;;;;;;;;;4882549;29;20029;-92
2021/11/09 22:49:09;;;;;;;15.48;8.30;;;;;;;;;;4882669;29;20060;-92
2021/11/09 22:51:35;;;;;;;15.45;10.07;;;;;;;;;;4874197;29;20033;-92
2021/11/09 22:54:01;;;;;;;15.02;9.25;;;;;;;;;;4863787;29;20124;-91
2021/11/09 22:56:30;;;;;;;15.20;9.35;;;;;;;;;;4866905;29;20025;-92
2021/11/09 22:58:56;;;;;;;17.30;10.43;;;;;;;;;;4867946;29;20029;-92
2021/11/09 23:01:23;;;;;;;14.48;8.88;;;;;;;;;;4868875;29;20089;-93
2021/11/09 23:03:49;;;;;;;13.77;9.13;;;;;;;;;;4867215;29;20128;-93
2021/11/09 23:06:15;;;;;;;17.25;9.52;;;;;;;;;;4872746;29;20169;-91
2021/11/09 23:08:41;;;;;;;17.35;10.52;;;;;;;;;;4884463;29;20037;-90
2021/11/09 23:11:07;;;;;;;16.13;10.27;;;;;;;;;;4884651;29;20031;-91
2021/11/09 23:13:33;;;;;;;15.85;9.90;;;;;;;;;;4869333;29;20120;-91
2021/11/09 23:16:00;;;;;;;17.52;9.70;;;;;;;;;;4868010;29;20036;-90
2021/11/09 23:18:26;;;;;;;16.20;9.93;;;;;;;;;;4866676;29;20021;-91